sensor_id;sensor_type;location;lat;lon;timestamp;pressure;altitude;pressure_sealevel;temperature;humidity
18323;BME280;9287;49.456;11.064;2023-04-22T00:00:14;97632.56;;;12.70;97.21
18323;BME280;9287;49.456;11.064;2023-04-22T00:02:42;97632.56;;;12.70;96.64
18323;BME280;9287;49.456;11.064;2023-04-22T00:05:15;97628.22;;;12.69;97.17
18323;BME280;9287;49.456;11.064;2023-04-22T00:07:46;97632.09;;;12.64;97.22
18323;BME280;9287;49.456;11.064;2023-04-22T00:10:17;97625.44;;;12.62;97.73
18323;BME280;9287;49.456;11.064;2023-04-22T00:12:46;97621.50;;;12.59;98.40
18323;BME280;9287;49.456;11.064;2023-04-22T00:15:17;97627.81;;;12.63;97.77
18323;BME280;9287;49.456;11.064;2023-04-22T00:17:49;97624.72;;;12.68;95.94
18323;BME280;9287;49.456;11.064;2023-04-22T00:20:20;97622.34;;;12.67;95.47
18323;BME280;9287;49.456;11.064;2023-04-22T00:22:48;97625.03;;;12.60;95.13
18323;BME280;9287;49.456;11.064;2023-04-22T00:25:16;97619.97;;;12.62;95.64
18323;BME280;9287;49.456;11.064;2023-04-22T00:27:59;97622.28;;;12.60;96.16
18323;BME280;9287;49.456;11.064;2023-04-22T00:30:28;97619.91;;;12.58;96.55
18323;BME280;9287;49.456;11.064;2023-04-22T00:32:58;97617.53;;;12.57;96.95
18323;BME280;9287;49.456;11.064;2023-04-22T00:35:27;97627.25;;;12.50;97.25
18323;BME280;9287;49.456;11.064;2023-04-22T00:37:56;97619.88;;;12.54;97.40
18323;BME280;9287;49.456;11.064;2023-04-22T00:40:27;97619.75;;;12.47;98.32
18323;BME280;9287;49.456;11.064;2023-04-22T00:42:56;97611.97;;;12.49;97.64
18323;BME280;9287;49.456;11.064;2023-04-22T00:45:25;97617.44;;;12.49;98.05
18323;BME280;9287;49.456;11.064;2023-04-22T00:47:56;97614.28;;;12.47;97.73
18323;BME280;9287;49.456;11.064;2023-04-22T00:50:25;97615.81;;;12.41;98.80
18323;BME280;9287;49.456;11.064;2023-04-22T00:52:59;97619.66;;;12.37;98.90
18323;BME280;9287;49.456;11.064;2023-04-22T00:55:28;97624.75;;;12.38;98.43
18323;BME280;9287;49.456;11.064;2023-04-22T00:57:57;97632.13;;;12.34;99.24
18323;BME280;9287;49.456;11.064;2023-04-22T01:00:28;97635.25;;;12.33;99.80
18323;BME280;9287;49.456;11.064;2023-04-22T01:02:58;97642.25;;;12.30;100.00
18323;BME280;9287;49.456;11.064;2023-04-22T01:05:29;97637.13;;;12.25;100.00
18323;BME280;9287;49.456;11.064;2023-04-22T01:08:02;97633.47;;;12.17;100.00
18323;BME280;9287;49.456;11.064;2023-04-22T01:10:30;97630.38;;;12.19;100.00
18323;BME280;9287;49.456;11.064;2023-04-22T01:12:59;97631.91;;;12.16;100.00
18323;BME280;9287;49.456;11.064;2023-04-22T01:15:41;97631.09;;;12.16;100.00
18323;BME280;9287;49.456;11.064;2023-04-22T01:18:11;97625.50;;;12.05;100.00
18323;BME280;9287;49.456;11.064;2023-04-22T01:20:39;97627.88;;;12.07;100.00
18323;BME280;9287;49.456;11.064;2023-04-22T01:23:20;97627.09;;;12.06;100.00
18323;BME280;9287;49.456;11.064;2023-04-22T01:25:49;97622.28;;;12.00;100.00
18323;BME280;9287;49.456;11.064;2023-04-22T01:28:18;97627.41;;;12.01;100.00
18323;BME280;9287;49.456;11.064;2023-04-22T01:30:48;97623.81;;;11.97;100.00
18323;BME280;9287;49.456;11.064;2023-04-22T01:33:20;97625.75;;;11.97;100.00
18323;BME280;9287;49.456;11.064;2023-04-22T01:35:50;97621.25;;;11.81;100.00
18323;BME280;9287;49.456;11.064;2023-04-22T01:38:20;97627.75;;;11.73;100.00
18323;BME280;9287;49.456;11.064;2023-04-22T01:40:50;97629.72;;;11.73;100.00
18323;BME280;9287;49.456;11.064;2023-04-22T01:43:21;97621.00;;;11.67;100.00
18323;BME280;9287;49.456;11.064;2023-04-22T01:45:51;97625.75;;;11.70;100.00
18323;BME280;9287;49.456;11.064;2023-04-22T01:48:20;97623.44;;;11.72;100.00
18323;BME280;9287;49.456;11.064;2023-04-22T01:50:48;97627.94;;;11.61;100.00
18323;BME280;9287;49.456;11.064;2023-04-22T01:53:16;97624.06;;;11.62;100.00
18323;BME280;9287;49.456;11.064;2023-04-22T01:55:47;97625.34;;;11.68;100.00
18323;BME280;9287;49.456;11.064;2023-04-22T01:58:15;97617.59;;;11.74;100.00
18323;BME280;9287;49.456;11.064;2023-04-22T02:00:46;97619.50;;;11.70;100.00
18323;BME280;9287;49.456;11.064;2023-04-22T02:03:14;97618.59;;;11.62;100.00
18323;BME280;9287;49.456;11.064;2023-04-22T02:05:42;97622.06;;;11.59;100.00
18323;BME280;9287;49.456;11.064;2023-04-22T02:08:10;97624.91;;;11.66;100.00
18323;BME280;9287;49.456;11.064;2023-04-22T02:10:38;97628.78;;;11.65;100.00
18323;BME280;9287;49.456;11.064;2023-04-22T02:13:09;97635.69;;;11.56;100.00
18323;BME280;9287;49.456;11.064;2023-04-22T02:15:38;97634.25;;;11.65;100.00
18323;BME280;9287;49.456;11.064;2023-04-22T02:18:11;97638.78;;;11.54;100.00
18323;BME280;9287;49.456;11.064;2023-04-22T02:20:39;97641.53;;;11.54;100.00
18323;BME280;9287;49.456;11.064;2023-04-22T02:23:12;97641.22;;;11.59;100.00
18323;BME280;9287;49.456;11.064;2023-04-22T02:25:52;97638.00;;;11.54;100.00
18323;BME280;9287;49.456;11.064;2023-04-22T02:28:28;97644.34;;;11.61;100.00
18323;BME280;9287;49.456;11.064;2023-04-22T02:30:57;97638.94;;;11.65;100.00
18323;BME280;9287;49.456;11.064;2023-04-22T02:33:25;97642.00;;;11.60;100.00
18323;BME280;9287;49.456;11.064;2023-04-22T02:35:53;97642.69;;;11.53;100.00
18323;BME280;9287;49.456;11.064;2023-04-22T02:38:21;97643.47;;;11.54;100.00
18323;BME280;9287;49.456;11.064;2023-04-22T02:40:49;97643.78;;;11.48;100.00
18323;BME280;9287;49.456;11.064;2023-04-22T02:43:17;97645.66;;;11.44;100.00
18323;BME280;9287;49.456;11.064;2023-04-22T02:45:46;97644.03;;;11.40;100.00
18323;BME280;9287;49.456;11.064;2023-04-22T02:48:14;97653.84;;;11.44;100.00
18323;BME280;9287;49.456;11.064;2023-04-22T02:50:42;97658.13;;;11.42;100.00
18323;BME280;9287;49.456;11.064;2023-04-22T02:53:10;97661.16;;;11.37;100.00
18323;BME280;9287;49.456;11.064;2023-04-22T02:55:38;97660.16;;;11.26;100.00
18323;BME280;9287;49.456;11.064;2023-04-22T02:58:07;97660.06;;;11.19;100.00
18323;BME280;9287;49.456;11.064;2023-04-22T03:00:35;97652.06;;;11.06;100.00
18323;BME280;9287;49.456;11.064;2023-04-22T03:03:04;97652.44;;;11.08;100.00
18323;BME280;9287;49.456;11.064;2023-04-22T03:05:33;97650.47;;;11.05;100.00
18323;BME280;9287;49.456;11.064;2023-04-22T03:08:02;97653.56;;;11.04;100.00
18323;BME280;9287;49.456;11.064;2023-04-22T03:10:29;97655.94;;;11.05;100.00
18323;BME280;9287;49.456;11.064;2023-04-22T03:12:57;97651.25;;;11.06;100.00
18323;BME280;9287;49.456;11.064;2023-04-22T03:15:25;97652.78;;;11.03;100.00
18323;BME280;9287;49.456;11.064;2023-04-22T03:17:53;97654.50;;;10.92;100.00
18323;BME280;9287;49.456;11.064;2023-04-22T03:20:22;97648.50;;;10.83;100.00
18323;BME280;9287;49.456;11.064;2023-04-22T03:22:50;97651.66;;;10.85;100.00
18323;BME280;9287;49.456;11.064;2023-04-22T03:25:19;97651.59;;;10.81;100.00
18323;BME280;9287;49.456;11.064;2023-04-22T03:27:47;97653.81;;;10.76;100.00
18323;BME280;9287;49.456;11.064;2023-04-22T03:30:14;97652.19;;;10.71;100.00
18323;BME280;9287;49.456;11.064;2023-04-22T03:32:42;97656.09;;;10.74;100.00
18323;BME280;9287;49.456;11.064;2023-04-22T03:35:10;97649.38;;;10.68;100.00
18323;BME280;9287;49.456;11.064;2023-04-22T03:37:39;97649.66;;;10.63;100.00
18323;BME280;9287;49.456;11.064;2023-04-22T03:40:08;97643.22;;;10.52;100.00
18323;BME280;9287;49.456;11.064;2023-04-22T03:42:39;97647.78;;;10.48;100.00
18323;BME280;9287;49.456;11.064;2023-04-22T03:45:07;97642.34;;;10.48;100.00
18323;BME280;9287;49.456;11.064;2023-04-22T03:47:37;97642.41;;;10.51;100.00
18323;BME280;9287;49.456;11.064;2023-04-22T03:50:06;97639.97;;;10.46;100.00
18323;BME280;9287;49.456;11.064;2023-04-22T03:52:33;97643.72;;;10.38;100.00
18323;BME280;9287;49.456;11.064;2023-04-22T03:55:03;97643.47;;;10.27;100.00
18323;BME280;9287;49.456;11.064;2023-04-22T03:57:31;97646.66;;;10.29;100.00
18323;BME280;9287;49.456;11.064;2023-04-22T03:59:58;97645.94;;;10.32;100.00
18323;BME280;9287;49.456;11.064;2023-04-22T04:02:28;97642.06;;;10.33;100.00
18323;BME280;9287;49.456;11.064;2023-04-22T04:04:56;97638.88;;;10.31;100.00
18323;BME280;9287;49.456;11.064;2023-04-22T04:07:24;97635.81;;;10.33;100.00
18323;BME280;9287;49.456;11.064;2023-04-22T04:09:51;97641.34;;;10.36;100.00
18323;BME280;9287;49.456;11.064;2023-04-22T04:12:21;97637.88;;;10.39;100.00
18323;BME280;9287;49.456;11.064;2023-04-22T04:14:48;97639.47;;;10.40;100.00
18323;BME280;9287;49.456;11.064;2023-04-22T04:17:16;97639.03;;;10.38;100.00
18323;BME280;9287;49.456;11.064;2023-04-22T04:19:44;97639.84;;;10.39;100.00
18323;BME280;9287;49.456;11.064;2023-04-22T04:22:12;97643.75;;;10.41;100.00
18323;BME280;9287;49.456;11.064;2023-04-22T04:24:40;97640.13;;;10.34;100.00
18323;BME280;9287;49.456;11.064;2023-04-22T04:27:08;97642.06;;;10.33;100.00
18323;BME280;9287;49.456;11.064;2023-04-22T04:29:38;97641.91;;;10.26;100.00
18323;BME280;9287;49.456;11.064;2023-04-22T04:32:07;97643.47;;;10.27;100.00
18323;BME280;9287;49.456;11.064;2023-04-22T04:34:35;97635.88;;;10.36;100.00
18323;BME280;9287;49.456;11.064;2023-04-22T04:37:03;97641.38;;;10.40;100.00
18323;BME280;9287;49.456;11.064;2023-04-22T04:39:33;97632.84;;;10.41;100.00
18323;BME280;9287;49.456;11.064;2023-04-22T04:42:01;97639.25;;;10.49;100.00
18323;BME280;9287;49.456;11.064;2023-04-22T04:44:29;97639.34;;;10.53;100.00
18323;BME280;9287;49.456;11.064;2023-04-22T04:46:58;97638.53;;;10.52;100.00
18323;BME280;9287;49.456;11.064;2023-04-22T04:49:26;97642.06;;;10.33;100.00
18323;BME280;9287;49.456;11.064;2023-04-22T04:51:56;97646.13;;;10.43;100.00
18323;BME280;9287;49.456;11.064;2023-04-22T04:54:24;97645.34;;;10.42;100.00
18323;BME280;9287;49.456;11.064;2023-04-22T04:56:51;97652.53;;;10.51;100.00
18323;BME280;9287;49.456;11.064;2023-04-22T04:59:19;97652.25;;;10.36;100.00
18323;BME280;9287;49.456;11.064;2023-04-22T05:01:47;97646.22;;;10.46;100.00
18323;BME280;9287;49.456;11.064;2023-04-22T05:04:18;97652.97;;;10.33;100.00
18323;BME280;9287;49.456;11.064;2023-04-22T05:06:46;97654.84;;;10.49;100.00
18323;BME280;9287;49.456;11.064;2023-04-22T05:09:14;97649.09;;;10.34;100.00
18323;BME280;9287;49.456;11.064;2023-04-22T05:11:42;97648.38;;;10.37;100.00
18323;BME280;9287;49.456;11.064;2023-04-22T05:14:10;97646.81;;;10.36;100.00
18323;BME280;9287;49.456;11.064;2023-04-22T05:16:37;97650.59;;;10.32;100.00
18323;BME280;9287;49.456;11.064;2023-04-22T05:19:05;97657.72;;;10.36;100.00
18323;BME280;9287;49.456;11.064;2023-04-22T05:21:35;97664.97;;;10.48;100.00
18323;BME280;9287;49.456;11.064;2023-04-22T05:24:03;97660.22;;;10.45;100.00
18323;BME280;9287;49.456;11.064;2023-04-22T05:26:31;97666.63;;;10.53;100.00
18323;BME280;9287;49.456;11.064;2023-04-22T05:28:58;97662.25;;;10.67;100.00
18323;BME280;9287;49.456;11.064;2023-04-22T05:31:26;97655.28;;;10.70;100.00
18323;BME280;9287;49.456;11.064;2023-04-22T05:33:54;97666.66;;;10.75;100.00
18323;BME280;9287;49.456;11.064;2023-04-22T05:36:22;97661.84;;;10.88;100.00
18323;BME280;9287;49.456;11.064;2023-04-22T05:38:51;97673.78;;;10.80;100.00
18323;BME280;9287;49.456;11.064;2023-04-22T05:41:19;97668.75;;;10.82;100.00
18323;BME280;9287;49.456;11.064;2023-04-22T05:43:46;97670.25;;;10.99;100.00
18323;BME280;9287;49.456;11.064;2023-04-22T05:46:14;97676.47;;;11.19;100.00
18323;BME280;9287;49.456;11.064;2023-04-22T05:48:43;97674.09;;;11.17;100.00
18323;BME280;9287;49.456;11.064;2023-04-22T05:51:10;97670.19;;;11.18;100.00
18323;BME280;9287;49.456;11.064;2023-04-22T05:53:38;97672.75;;;11.30;100.00
18323;BME280;9287;49.456;11.064;2023-04-22T05:56:07;97679.25;;;11.45;100.00
18323;BME280;9287;49.456;11.064;2023-04-22T05:58:35;97685.69;;;11.56;100.00
18323;BME280;9287;49.456;11.064;2023-04-22T06:01:04;97671.69;;;11.61;100.00
18323;BME280;9287;49.456;11.064;2023-04-22T06:03:32;97682.03;;;11.71;97.38
18323;BME280;9287;49.456;11.064;2023-04-22T06:06:00;97683.63;;;11.72;97.32
18323;BME280;9287;49.456;11.064;2023-04-22T06:08:29;97685.03;;;11.85;95.45
18323;BME280;9287;49.456;11.064;2023-04-22T06:10:57;97683.28;;;12.00;93.84
18323;BME280;9287;49.456;11.064;2023-04-22T06:13:27;97683.47;;;12.14;93.03
18323;BME280;9287;49.456;11.064;2023-04-22T06:15:54;97679.69;;;12.23;90.52
18323;BME280;9287;49.456;11.064;2023-04-22T06:18:22;97680.72;;;12.41;90.42
18323;BME280;9287;49.456;11.064;2023-04-22T06:20:52;97674.75;;;12.65;89.16
18323;BME280;9287;49.456;11.064;2023-04-22T06:23:21;97675.06;;;12.90;85.03
18323;BME280;9287;49.456;11.064;2023-04-22T06:25:49;97675.94;;;13.01;83.67
18323;BME280;9287;49.456;11.064;2023-04-22T06:28:17;97673.97;;;13.32;80.65
18323;BME280;9287;49.456;11.064;2023-04-22T06:30:46;97680.28;;;13.39;76.72
18323;BME280;9287;49.456;11.064;2023-04-22T06:33:13;97678.84;;;13.56;75.04
18323;BME280;9287;49.456;11.064;2023-04-22T06:35:42;97682.19;;;13.79;72.34
18323;BME280;9287;49.456;11.064;2023-04-22T06:38:10;97682.16;;;14.34;70.09
18323;BME280;9287;49.456;11.064;2023-04-22T06:40:38;97688.16;;;14.50;67.41
18323;BME280;9287;49.456;11.064;2023-04-22T06:43:06;97679.94;;;14.57;63.78
18323;BME280;9287;49.456;11.064;2023-04-22T06:45:34;97682.78;;;14.72;62.49
18323;BME280;9287;49.456;11.064;2023-04-22T06:48:04;97680.56;;;16.37;57.68
18323;BME280;9287;49.456;11.064;2023-04-22T06:50:31;97674.22;;;17.90;50.35
18323;BME280;9287;49.456;11.064;2023-04-22T06:53:00;97676.00;;;19.16;47.83
18323;BME280;9287;49.456;11.064;2023-04-22T06:55:28;97675.66;;;20.38;44.09
18323;BME280;9287;49.456;11.064;2023-04-22T06:57:55;97682.72;;;21.02;42.51
18323;BME280;9287;49.456;11.064;2023-04-22T07:00:23;97669.03;;;23.15;39.01
18323;BME280;9287;49.456;11.064;2023-04-22T07:02:51;97664.59;;;23.81;37.65
18323;BME280;9287;49.456;11.064;2023-04-22T07:05:21;97654.44;;;21.07;40.62
18323;BME280;9287;49.456;11.064;2023-04-22T07:07:48;97665.84;;;21.97;39.38
18323;BME280;9287;49.456;11.064;2023-04-22T07:10:17;97657.91;;;20.95;40.59
18323;BME280;9287;49.456;11.064;2023-04-22T07:12:44;97654.56;;;20.64;41.42
18323;BME280;9287;49.456;11.064;2023-04-22T07:15:12;97654.66;;;23.16;37.62
18323;BME280;9287;49.456;11.064;2023-04-22T07:17:40;97659.59;;;21.93;39.17
18323;BME280;9287;49.456;11.064;2023-04-22T07:20:10;97645.66;;;20.72;41.16
18323;BME280;9287;49.456;11.064;2023-04-22T07:22:39;97652.75;;;22.43;38.52
18323;BME280;9287;49.456;11.064;2023-04-22T07:25:09;97649.34;;;21.41;40.46
18323;BME280;9287;49.456;11.064;2023-04-22T07:27:37;97647.94;;;21.82;39.42
18323;BME280;9287;49.456;11.064;2023-04-22T07:30:08;97647.44;;;21.71;39.92
18323;BME280;9287;49.456;11.064;2023-04-22T07:32:35;97652.25;;;22.89;37.72
18323;BME280;9287;49.456;11.064;2023-04-22T07:35:04;97644.81;;;21.47;40.19
18323;BME280;9287;49.456;11.064;2023-04-22T07:37:32;97645.84;;;21.37;39.89
18323;BME280;9287;49.456;11.064;2023-04-22T07:40:01;97649.00;;;21.39;39.86
18323;BME280;9287;49.456;11.064;2023-04-22T07:42:29;97641.19;;;21.50;39.86
18323;BME280;9287;49.456;11.064;2023-04-22T07:44:57;97645.72;;;20.89;40.83
18323;BME280;9287;49.456;11.064;2023-04-22T07:47:24;97647.44;;;21.71;39.28
18323;BME280;9287;49.456;11.064;2023-04-22T07:49:53;97642.38;;;21.49;40.34
18323;BME280;9287;49.456;11.064;2023-04-22T07:52:21;97643.28;;;21.46;40.34
18323;BME280;9287;49.456;11.064;2023-04-22T07:54:49;97639.72;;;23.23;37.57
18323;BME280;9287;49.456;11.064;2023-04-22T07:57:18;97634.13;;;24.34;37.01
18323;BME280;9287;49.456;11.064;2023-04-22T07:59:48;97644.84;;;24.79;34.41
18323;BME280;9287;49.456;11.064;2023-04-22T08:02:15;97640.75;;;24.92;35.23
18323;BME280;9287;49.456;11.064;2023-04-22T08:04:44;97643.44;;;26.25;33.10
18323;BME280;9287;49.456;11.064;2023-04-22T08:07:13;97636.69;;;27.56;30.61
18323;BME280;9287;49.456;11.064;2023-04-22T08:09:58;97643.44;;;26.98;31.28
18323;BME280;9287;49.456;11.064;2023-04-22T08:12:27;97640.44;;;24.90;34.59
18323;BME280;9287;49.456;11.064;2023-04-22T08:14:55;97646.28;;;25.36;33.15
18323;BME280;9287;49.456;11.064;2023-04-22T08:17:24;97630.31;;;27.14;31.17
18323;BME280;9287;49.456;11.064;2023-04-22T08:19:52;97640.22;;;27.33;30.92
18323;BME280;9287;49.456;11.064;2023-04-22T08:22:19;97643.69;;;24.67;33.55
18323;BME280;9287;49.456;11.064;2023-04-22T08:24:49;97633.97;;;27.38;30.62
18323;BME280;9287;49.456;11.064;2023-04-22T08:27:17;97631.13;;;26.87;30.86
18323;BME280;9287;49.456;11.064;2023-04-22T08:29:48;97639.66;;;25.43;32.64
18323;BME280;9287;49.456;11.064;2023-04-22T08:32:16;97627.91;;;26.33;32.10
18323;BME280;9287;49.456;11.064;2023-04-22T08:34:45;97636.41;;;28.11;29.72
18323;BME280;9287;49.456;11.064;2023-04-22T08:37:17;97639.72;;;24.77;33.30
18323;BME280;9287;49.456;11.064;2023-04-22T08:39:47;97633.44;;;27.58;31.13
18323;BME280;9287;49.456;11.064;2023-04-22T08:42:15;97641.19;;;28.44;29.46
18323;BME280;9287;49.456;11.064;2023-04-22T08:44:44;97630.38;;;26.68;31.43
18323;BME280;9287;49.456;11.064;2023-04-22T08:47:14;97638.19;;;27.76;30.28
18323;BME280;9287;49.456;11.064;2023-04-22T08:49:42;97630.88;;;28.64;28.91
18323;BME280;9287;49.456;11.064;2023-04-22T08:52:10;97622.91;;;26.74;31.62
18323;BME280;9287;49.456;11.064;2023-04-22T08:54:40;97624.28;;;27.48;29.65
18323;BME280;9287;49.456;11.064;2023-04-22T08:57:08;97614.34;;;29.10;28.77
18323;BME280;9287;49.456;11.064;2023-04-22T08:59:37;97625.97;;;27.13;30.85
18323;BME280;9287;49.456;11.064;2023-04-22T09:02:12;97609.84;;;26.71;31.28
18323;BME280;9287;49.456;11.064;2023-04-22T09:04:42;97610.78;;;27.94;29.45
18323;BME280;9287;49.456;11.064;2023-04-22T09:07:10;97601.56;;;27.37;30.14
18323;BME280;9287;49.456;11.064;2023-04-22T09:09:40;97611.81;;;25.70;32.09
18323;BME280;9287;49.456;11.064;2023-04-22T09:12:10;97597.88;;;26.61;31.71
18323;BME280;9287;49.456;11.064;2023-04-22T09:14:38;97593.94;;;25.27;32.93
18323;BME280;9287;49.456;11.064;2023-04-22T09:17:06;97602.06;;;24.82;32.97
18323;BME280;9287;49.456;11.064;2023-04-22T09:19:35;97589.75;;;21.91;37.33
18323;BME280;9287;49.456;11.064;2023-04-22T09:22:08;97599.69;;;21.76;37.91
18323;BME280;9287;49.456;11.064;2023-04-22T09:24:42;97600.09;;;21.91;37.92
18323;BME280;9287;49.456;11.064;2023-04-22T09:27:10;97598.09;;;21.10;39.64
18323;BME280;9287;49.456;11.064;2023-04-22T09:29:40;97591.16;;;21.67;38.94
18323;BME280;9287;49.456;11.064;2023-04-22T09:32:14;97583.00;;;21.76;38.36
18323;BME280;9287;49.456;11.064;2023-04-22T09:34:49;97596.34;;;21.16;39.24
18323;BME280;9287;49.456;11.064;2023-04-22T09:37:22;97589.59;;;21.66;38.70
18323;BME280;9287;49.456;11.064;2023-04-22T09:40:01;97587.41;;;22.35;37.57
18323;BME280;9287;49.456;11.064;2023-04-22T09:42:30;97583.44;;;22.77;37.42
18323;BME280;9287;49.456;11.064;2023-04-22T09:44:58;97582.03;;;23.96;35.58
18323;BME280;9287;49.456;11.064;2023-04-22T09:47:34;97582.56;;;23.31;36.25
18323;BME280;9287;49.456;11.064;2023-04-22T09:52:44;97578.38;;;24.43;33.64
18323;BME280;9287;49.456;11.064;2023-04-22T09:55:12;97577.50;;;24.24;33.83
18323;BME280;9287;49.456;11.064;2023-04-22T09:57:42;97575.13;;;25.19;32.42
18323;BME280;9287;49.456;11.064;2023-04-22T10:00:12;97585.84;;;23.77;34.41
18323;BME280;9287;49.456;11.064;2023-04-22T10:02:42;97573.09;;;24.88;32.86
18323;BME280;9287;49.456;11.064;2023-04-22T10:05:11;97583.63;;;24.84;32.43
18323;BME280;9287;49.456;11.064;2023-04-22T10:07:41;97568.97;;;24.27;33.31
18323;BME280;9287;49.456;11.064;2023-04-22T10:10:12;97569.25;;;25.84;31.58
18323;BME280;9287;49.456;11.064;2023-04-22T10:12:41;97566.53;;;25.04;32.04
18323;BME280;9287;49.456;11.064;2023-04-22T10:15:10;97569.91;;;25.39;31.86
18323;BME280;9287;49.456;11.064;2023-04-22T10:17:38;97557.91;;;25.29;31.44
18323;BME280;9287;49.456;11.064;2023-04-22T10:20:10;97557.13;;;24.89;31.53
18323;BME280;9287;49.456;11.064;2023-04-22T10:22:41;97556.47;;;25.16;31.74
18323;BME280;9287;49.456;11.064;2023-04-22T10:25:20;97563.06;;;26.53;30.35
18323;BME280;9287;49.456;11.064;2023-04-22T10:27:53;97565.16;;;25.09;31.40
18323;BME280;9287;49.456;11.064;2023-04-22T10:30:31;97552.41;;;23.77;33.20
18323;BME280;9287;49.456;11.064;2023-04-22T10:33:35;97549.72;;;23.86;32.68
18323;BME280;9287;49.456;11.064;2023-04-22T10:36:15;97543.09;;;23.71;33.37
18323;BME280;9287;49.456;11.064;2023-04-22T10:39:16;97542.88;;;24.21;32.79
18323;BME280;9287;49.456;11.064;2023-04-22T10:41:55;97543.84;;;24.06;33.11
18323;BME280;9287;49.456;11.064;2023-04-22T10:44:28;97540.88;;;24.44;32.85
18323;BME280;9287;49.456;11.064;2023-04-22T10:46:58;97529.53;;;23.82;33.45
18323;BME280;9287;49.456;11.064;2023-04-22T10:49:30;97531.91;;;24.05;33.50
18323;BME280;9287;49.456;11.064;2023-04-22T10:52:04;97524.72;;;23.22;34.65
18323;BME280;9287;49.456;11.064;2023-04-22T10:54:55;97513.59;;;23.22;33.79
18323;BME280;9287;49.456;11.064;2023-04-22T10:57:31;97522.13;;;24.22;33.29
18323;BME280;9287;49.456;11.064;2023-04-22T11:00:21;97519.50;;;25.03;31.23
18323;BME280;9287;49.456;11.064;2023-04-22T11:02:52;97509.47;;;24.83;31.93
18323;BME280;9287;49.456;11.064;2023-04-22T11:05:23;97518.16;;;24.85;31.41
18323;BME280;9287;49.456;11.064;2023-04-22T11:07:54;97512.34;;;24.71;32.44
18323;BME280;9287;49.456;11.064;2023-04-22T11:10:37;97507.34;;;25.37;31.26
18323;BME280;9287;49.456;11.064;2023-04-22T11:13:13;97514.91;;;24.87;31.59
18323;BME280;9287;49.456;11.064;2023-04-22T11:15:42;97517.41;;;25.34;31.08
18323;BME280;9287;49.456;11.064;2023-04-22T11:18:14;97507.09;;;25.13;32.31
18323;BME280;9287;49.456;11.064;2023-04-22T11:20:42;97501.56;;;25.22;30.35
18323;BME280;9287;49.456;11.064;2023-04-22T11:23:10;97499.78;;;25.64;30.10
18323;BME280;9287;49.456;11.064;2023-04-22T11:25:37;97503.69;;;25.09;31.05
18323;BME280;9287;49.456;11.064;2023-04-22T11:28:05;97505.09;;;25.13;30.84
18323;BME280;9287;49.456;11.064;2023-04-22T11:30:36;97498.56;;;24.45;31.91
18323;BME280;9287;49.456;11.064;2023-04-22T11:33:07;97497.53;;;25.23;31.35
18323;BME280;9287;49.456;11.064;2023-04-22T11:35:42;97499.13;;;25.51;31.09
18323;BME280;9287;49.456;11.064;2023-04-22T11:38:10;97491.97;;;25.41;30.85
18323;BME280;9287;49.456;11.064;2023-04-22T11:40:40;97496.16;;;24.87;31.28
18323;BME280;9287;49.456;11.064;2023-04-22T11:43:12;97489.25;;;25.69;30.46
18323;BME280;9287;49.456;11.064;2023-04-22T11:45:43;97488.56;;;25.46;30.70
18323;BME280;9287;49.456;11.064;2023-04-22T11:48:13;97488.63;;;25.83;29.77
18323;BME280;9287;49.456;11.064;2023-04-22T11:50:42;97480.91;;;24.79;30.73
18323;BME280;9287;49.456;11.064;2023-04-22T11:53:15;97486.44;;;25.01;30.63
18323;BME280;9287;49.456;11.064;2023-04-22T11:55:45;97485.78;;;25.55;30.08
18323;BME280;9287;49.456;11.064;2023-04-22T11:58:16;97479.72;;;25.57;30.10
18323;BME280;9287;49.456;11.064;2023-04-22T12:00:47;97474.91;;;26.21;29.59
18323;BME280;9287;49.456;11.064;2023-04-22T12:03:17;97476.78;;;26.24;29.24
18323;BME280;9287;49.456;11.064;2023-04-22T12:05:51;97474.78;;;25.70;28.13
18323;BME280;9287;49.456;11.064;2023-04-22T12:08:22;97477.75;;;25.66;29.28
18323;BME280;9287;49.456;11.064;2023-04-22T12:10:52;97470.25;;;26.37;29.01
18323;BME280;9287;49.456;11.064;2023-04-22T12:13:24;97467.75;;;26.39;28.21
18323;BME280;9287;49.456;11.064;2023-04-22T12:15:58;97461.16;;;26.60;28.86
18323;BME280;9287;49.456;11.064;2023-04-22T12:18:29;97465.75;;;25.57;29.03
18323;BME280;9287;49.456;11.064;2023-04-22T12:21:07;97462.19;;;26.02;29.26
18323;BME280;9287;49.456;11.064;2023-04-22T12:23:40;97468.09;;;25.58;29.51
18323;BME280;9287;49.456;11.064;2023-04-22T12:26:09;97470.38;;;25.32;29.71
18323;BME280;9287;49.456;11.064;2023-04-22T12:28:38;97469.81;;;24.97;30.31
18323;BME280;9287;49.456;11.064;2023-04-22T12:31:09;97471.09;;;25.06;31.42
18323;BME280;9287;49.456;11.064;2023-04-22T12:33:37;97459.00;;;25.18;29.57
18323;BME280;9287;49.456;11.064;2023-04-22T12:36:05;97458.38;;;25.05;30.53
18323;BME280;9287;49.456;11.064;2023-04-22T12:38:34;97462.34;;;24.23;31.70
18323;BME280;9287;49.456;11.064;2023-04-22T12:41:03;97459.16;;;23.56;33.43
18323;BME280;9287;49.456;11.064;2023-04-22T12:43:31;97459.69;;;23.64;33.76
18323;BME280;9287;49.456;11.064;2023-04-22T12:46:04;97461.00;;;24.15;33.36
18323;BME280;9287;49.456;11.064;2023-04-22T12:48:34;97453.09;;;23.92;33.19
18323;BME280;9287;49.456;11.064;2023-04-22T12:51:03;97446.88;;;24.32;33.27
18323;BME280;9287;49.456;11.064;2023-04-22T12:53:31;97452.31;;;24.66;32.78
18323;BME280;9287;49.456;11.064;2023-04-22T12:55:59;97448.69;;;24.25;33.63
18323;BME280;9287;49.456;11.064;2023-04-22T12:58:27;97440.38;;;24.13;34.12
18323;BME280;9287;49.456;11.064;2023-04-22T13:00:55;97452.81;;;23.55;34.54
18323;BME280;9287;49.456;11.064;2023-04-22T13:03:23;97438.84;;;23.21;34.96
18323;BME280;9287;49.456;11.064;2023-04-22T13:05:53;97437.88;;;23.49;34.60
18323;BME280;9287;49.456;11.064;2023-04-22T13:08:21;97436.50;;;23.67;34.91
18323;BME280;9287;49.456;11.064;2023-04-22T13:10:49;97424.59;;;23.88;34.59